Time;durP1;ratioP1;P1;durP2;ratioP2;P2;SDS_P1;SDS_P2;PMS_P1;PMS_P2;Temp;Humidity;BMP_temperature;BMP_pressure;BME280_temperature;BME280_humidity;BME280_pressure;Samples;Min_cycle;Max_cycle;Signal;HPM_P1;HPM_P2
2023/03/10 00:01:32;;;;;;;2.67;1.50;;;11.00;99.90;;;;;;5134488;27;20146;-74
2023/03/10 00:03:59;;;;;;;4.03;1.47;;;11.00;99.90;;;;;;5115337;28;20174;-74
2023/03/10 00:06:27;;;;;;;6.37;1.30;;;11.00;99.90;;;;;;5097292;28;20700;-74
2023/03/10 00:08:54;;;;;;;4.00;1.50;;;11.10;99.90;;;;;;5098371;28;20521;-74
2023/03/10 00:11:20;;;;;;;3.43;1.40;;;11.10;99.90;;;;;;5115558;28;20161;-74
2023/03/10 00:13:46;;;;;;;4.33;1.50;;;11.30;99.90;;;;;;5115815;28;20161;-74
2023/03/10 00:16:20;;;;;;;4.43;1.00;;;11.30;99.90;;;;;;5115453;28;20546;-73
2023/03/10 00:18:47;;;;;;;3.90;1.27;;;11.20;99.90;;;;;;5121506;27;20523;-74
2023/03/10 00:21:15;;;;;;;2.67;1.00;;;11.30;99.90;;;;;;5117131;27;20172;-74
2023/03/10 00:23:41;;;;;;;2.87;1.13;;;11.20;99.90;;;;;;5135449;27;20177;-74
2023/03/10 00:26:06;;;;;;;2.83;1.30;;;11.20;99.90;;;;;;5133376;27;20640;-75
2023/03/10 00:28:32;;;;;;;3.47;1.23;;;11.20;99.90;;;;;;5115096;28;20611;-75
2023/03/10 00:31:06;;;;;;;3.57;1.30;;;11.00;99.90;;;;;;5114638;27;20212;-74
2023/03/10 00:33:33;;;;;;;3.53;1.47;;;11.10;99.90;;;;;;5121299;27;20253;-74
2023/03/10 00:36:15;;;;;;;3.97;1.60;;;11.20;99.90;;;;;;5117810;27;20165;-73
2023/03/10 00:38:42;;;;;;;3.53;1.47;;;11.30;99.90;;;;;;5135350;27;20516;-74
2023/03/10 00:41:12;;;;;;;4.20;1.70;;;11.20;99.90;;;;;;5135450;27;20185;-74
2023/03/10 00:43:37;;;;;;;5.70;1.90;;;11.20;99.90;;;;;;5110300;28;20253;-73
2023/03/10 00:46:04;;;;;;;3.97;1.93;;;11.30;99.90;;;;;;5114668;28;20686;-73
2023/03/10 00:48:30;;;;;;;6.00;2.30;;;11.50;99.90;;;;;;5096777;28;20177;-74
2023/03/10 00:50:56;;;;;;;2.97;2.07;;;11.40;99.90;;;;;;5115402;28;20150;-74
2023/03/10 00:53:22;;;;;;;4.27;2.20;;;11.30;99.90;;;;;;5117911;27;20162;-73
2023/03/10 00:55:59;;;;;;;6.20;2.23;;;11.40;99.90;;;;;;5116877;27;20166;-74
2023/03/10 00:58:25;;;;;;;5.73;2.40;;;11.40;99.90;;;;;;5134923;27;20257;-73
2023/03/10 01:00:50;;;;;;;5.23;2.13;;;11.40;99.90;;;;;;5135240;27;20193;-73
2023/03/10 01:03:16;;;;;;;6.00;1.87;;;11.40;99.90;;;;;;5126187;27;20217;-74
2023/03/10 01:05:41;;;;;;;7.90;2.43;;;11.40;99.90;;;;;;5134911;27;20643;-74
2023/03/10 01:08:07;;;;;;;8.03;2.10;;;11.50;99.90;;;;;;5116413;27;20222;-74
2023/03/10 01:10:33;;;;;;;6.37;2.50;;;11.70;99.90;;;;;;5134770;27;20183;-73
2023/03/10 01:12:59;;;;;;;10.87;2.40;;;11.60;99.90;;;;;;5123044;27;20224;-74
2023/03/10 01:15:25;;;;;;;9.30;2.70;;;11.70;99.90;;;;;;5096151;28;20218;-73
2023/03/10 01:17:50;;;;;;;7.07;2.00;;;11.60;99.90;;;;;;5095831;28;20170;-73
2023/03/10 01:20:17;;;;;;;12.70;2.40;;;11.40;99.90;;;;;;5114461;28;20285;-75
2023/03/10 01:22:43;;;;;;;8.20;2.23;;;11.50;99.90;;;;;;5123133;27;20238;-74
2023/03/10 01:25:14;;;;;;;8.20;1.93;;;11.60;99.90;;;;;;5134803;27;20660;-74
2023/03/10 01:27:42;;;;;;;11.50;2.50;;;11.40;99.90;;;;;;5116169;27;20158;-74
2023/03/10 01:30:10;;;;;;;8.53;1.80;;;11.30;99.90;;;;;;5115819;27;20166;-74
2023/03/10 01:32:37;;;;;;;5.67;1.70;;;11.30;99.90;;;;;;5126682;27;20169;-74
2023/03/10 01:35:04;;;;;;;7.33;2.00;;;11.20;99.90;;;;;;5112750;28;20664;-73
2023/03/10 01:37:30;;;;;;;7.40;1.70;;;11.30;99.90;;;;;;5113931;28;20178;-73
2023/03/10 01:39:55;;;;;;;12.73;1.97;;;11.40;99.90;;;;;;5113438;28;20176;-73
2023/03/10 01:42:21;;;;;;;6.60;1.47;;;11.40;99.90;;;;;;5117802;27;20618;-74
2023/03/10 01:45:22;;;;;;;6.77;1.60;;;11.40;99.90;;;;;;5134248;27;20646;-73
2023/03/10 01:47:48;;;;;;;6.53;1.83;;;11.50;99.90;;;;;;5031259;28;20247;-73
2023/03/10 01:50:16;;;;;;;8.43;1.70;;;11.30;99.90;;;;;;5113185;27;20216;-73
2023/03/10 01:52:46;;;;;;;6.07;1.93;;;11.40;99.90;;;;;;5132051;27;20166;-74
2023/03/10 01:55:20;;;;;;;7.20;1.27;;;11.30;99.90;;;;;;5133427;27;20172;-73
2023/03/10 01:57:50;;;;;;;7.93;1.50;;;11.20;99.90;;;;;;5134081;27;20649;-74
2023/03/10 02:00:16;;;;;;;5.87;1.60;;;11.20;99.90;;;;;;5133780;27;20607;-73
2023/03/10 02:02:49;;;;;;;6.93;1.67;;;11.20;99.90;;;;;;5115729;27;20501;-73
2023/03/10 02:05:15;;;;;;;6.80;1.50;;;11.30;99.90;;;;;;5133762;27;20721;-71
2023/03/10 02:07:42;;;;;;;11.93;2.07;;;11.30;99.90;;;;;;5133680;27;20223;-71
2023/03/10 02:10:11;;;;;;;8.13;2.00;;;11.20;99.90;;;;;;5133315;27;20696;-70
2023/03/10 02:12:38;;;;;;;14.50;2.23;;;11.20;99.90;;;;;;5134303;27;20607;-72
2023/03/10 02:15:05;;;;;;;7.23;1.63;;;11.30;99.90;;;;;;5133836;27;20467;-71
2023/03/10 02:17:32;;;;;;;6.73;1.67;;;11.30;99.90;;;;;;5115042;27;20169;-72
2023/03/10 02:20:10;;;;;;;10.43;1.63;;;11.20;99.90;;;;;;5106319;28;20263;-72
2023/03/10 02:22:37;;;;;;;9.00;1.50;;;11.20;99.90;;;;;;5094813;28;20256;-70
2023/03/10 02:25:18;;;;;;;10.57;2.10;;;11.10;99.90;;;;;;5112945;28;20269;-70
2023/03/10 02:27:44;;;;;;;6.50;1.53;;;11.10;99.90;;;;;;5112721;28;20254;-71
2023/03/10 02:30:20;;;;;;;9.73;1.50;;;11.10;99.90;;;;;;5104251;27;20681;-72
2023/03/10 02:32:53;;;;;;;9.07;2.00;;;11.10;99.90;;;;;;5133430;27;20161;-71
2023/03/10 02:35:19;;;;;;;10.03;2.33;;;11.10;99.90;;;;;;5108698;28;20182;-72
2023/03/10 02:37:44;;;;;;;9.67;1.80;;;11.10;99.90;;;;;;5112989;28;20175;-70
2023/03/10 02:40:44;;;;;;;8.73;1.53;;;11.10;99.90;;;;;;5112689;28;20161;-71
2023/03/10 02:43:22;;;;;;;9.80;1.97;;;11.10;99.90;;;;;;5076232;28;20193;-73
2023/03/10 02:45:50;;;;;;;8.53;2.00;;;11.00;99.90;;;;;;5115125;27;20198;-71
2023/03/10 02:48:23;;;;;;;8.77;2.10;;;11.10;99.90;;;;;;5098724;28;20595;-71
2023/03/10 02:50:50;;;;;;;12.87;1.97;;;11.30;99.90;;;;;;5098566;28;20181;-71
2023/03/10 02:53:19;;;;;;;11.23;2.27;;;11.20;99.90;;;;;;5116702;28;20226;-70
2023/03/10 02:55:45;;;;;;;9.63;2.10;;;11.30;99.90;;;;;;5136138;27;20169;-72
2023/03/10 02:58:12;;;;;;;12.80;2.87;;;11.40;99.90;;;;;;5119121;27;20165;-70
2023/03/10 03:00:40;;;;;;;11.80;2.43;;;11.40;99.90;;;;;;5137858;27;20563;-71
2023/03/10 03:03:06;;;;;;;14.50;2.63;;;11.40;99.90;;;;;;5137727;27;20248;-72
2023/03/10 03:05:33;;;;;;;14.53;2.73;;;11.30;99.90;;;;;;5118142;27;20201;-71
2023/03/10 03:07:58;;;;;;;16.87;2.43;;;11.30;99.90;;;;;;5098241;28;20249;-71
2023/03/10 03:10:24;;;;;;;11.70;2.47;;;11.30;99.90;;;;;;5116236;28;20602;-71
2023/03/10 03:12:50;;;;;;;10.53;2.47;;;11.30;99.90;;;;;;5116749;28;20234;-71
2023/03/10 03:15:16;;;;;;;15.10;2.67;;;11.10;99.90;;;;;;5132373;27;20208;-71
2023/03/10 03:17:42;;;;;;;9.20;2.33;;;11.20;99.90;;;;;;5118689;27;20185;-70
2023/03/10 03:20:12;;;;;;;10.03;2.90;;;11.20;99.90;;;;;;5137009;27;20161;-72
2023/03/10 03:22:42;;;;;;;5.47;1.90;;;11.20;99.90;;;;;;5137325;27;20146;-72
2023/03/10 03:25:09;;;;;;;16.87;3.17;;;11.10;99.90;;;;;;5104181;28;20288;-71
2023/03/10 03:27:35;;;;;;;11.83;2.40;;;10.90;99.90;;;;;;5116246;28;20185;-71
2023/03/10 03:30:04;;;;;;;13.17;2.47;;;11.00;99.90;;;;;;5116509;28;20189;-71
2023/03/10 03:32:30;;;;;;;7.87;1.93;;;11.00;99.90;;;;;;5098003;28;20170;-71
2023/03/10 03:34:55;;;;;;;7.73;2.20;;;11.00;99.90;;;;;;5128173;27;20192;-71
2023/03/10 03:37:21;;;;;;;6.73;2.37;;;11.10;99.90;;;;;;5136915;27;20635;-70
2023/03/10 03:39:47;;;;;;;12.70;3.07;;;11.10;99.90;;;;;;5136509;27;20203;-72
2023/03/10 03:42:12;;;;;;;15.67;2.97;;;11.10;99.90;;;;;;5136480;27;20255;-70
2023/03/10 03:44:38;;;;;;;10.37;2.27;;;11.10;99.90;;;;;;5126997;27;20201;-70
2023/03/10 03:47:04;;;;;;;8.90;1.77;;;11.10;99.90;;;;;;5115929;28;20271;-70
2023/03/10 03:49:29;;;;;;;9.57;1.83;;;11.00;99.90;;;;;;5121647;27;20161;-70
2023/03/10 03:51:55;;;;;;;6.50;1.77;;;10.90;99.90;;;;;;5136649;27;20620;-71
2023/03/10 03:54:20;;;;;;;10.50;2.03;;;10.90;99.90;;;;;;5136554;27;20183;-71
2023/03/10 03:56:47;;;;;;;11.37;2.20;;;10.90;99.90;;;;;;5116856;27;20196;-70
2023/03/10 03:59:12;;;;;;;8.40;1.53;;;10.90;99.90;;;;;;5133395;27;20645;-72
2023/03/10 04:01:38;;;;;;;9.10;1.57;;;11.00;99.90;;;;;;5115891;28;20164;-71
2023/03/10 04:04:04;;;;;;;5.97;1.70;;;11.10;99.90;;;;;;5115929;28;20170;-72
2023/03/10 04:06:29;;;;;;;6.00;1.13;;;11.00;99.90;;;;;;5097555;28;20209;-71
2023/03/10 04:08:55;;;;;;;6.47;2.07;;;11.10;99.90;;;;;;5110623;27;20234;-72
2023/03/10 04:11:20;;;;;;;9.67;1.60;;;11.10;99.90;;;;;;5109631;28;20174;-70
2023/03/10 04:13:46;;;;;;;9.30;1.83;;;11.00;99.90;;;;;;5097338;28;20618;-72
2023/03/10 04:16:12;;;;;;;7.00;1.30;;;11.00;99.90;;;;;;5097248;28;20530;-73
2023/03/10 04:18:37;;;;;;;7.63;1.80;;;11.10;99.90;;;;;;5115518;28;20156;-72
2023/03/10 04:21:03;;;;;;;8.00;1.40;;;11.10;99.90;;;;;;5101156;27;20186;-72
2023/03/10 04:23:29;;;;;;;6.57;1.37;;;11.10;99.90;;;;;;5135739;27;20177;-71
2023/03/10 04:25:54;;;;;;;11.23;1.43;;;11.00;99.90;;;;;;5116859;27;20181;-72
2023/03/10 04:28:21;;;;;;;8.40;1.80;;;10.90;99.90;;;;;;5117207;27;20162;-73
2023/03/10 04:30:47;;;;;;;8.70;2.90;;;10.70;99.90;;;;;;5134787;27;20152;-71
2023/03/10 04:33:12;;;;;;;6.20;1.50;;;10.50;99.90;;;;;;5121963;27;20174;-72
2023/03/10 04:35:40;;;;;;;7.90;1.47;;;10.50;99.90;;;;;;5135243;27;20165;-71
2023/03/10 04:38:06;;;;;;;4.83;1.10;;;10.60;99.90;;;;;;5135256;27;20702;-74
2023/03/10 04:40:31;;;;;;;10.47;2.00;;;10.70;99.90;;;;;;5117168;27;20161;-71
2023/03/10 04:42:58;;;;;;;3.77;1.00;;;10.60;99.90;;;;;;5132066;27;20170;-70
2023/03/10 04:45:23;;;;;;;5.53;1.37;;;10.60;99.90;;;;;;5114920;28;20180;-70
2023/03/10 04:47:50;;;;;;;5.43;1.40;;;10.60;99.90;;;;;;5114816;28;20233;-71
2023/03/10 04:50:16;;;;;;;7.80;0.90;;;10.60;99.90;;;;;;5124377;27;20170;-72
2023/03/10 04:52:44;;;;;;;9.03;1.13;;;10.50;99.90;;;;;;5135372;27;20218;-71
2023/03/10 04:55:10;;;;;;;7.20;1.47;;;10.40;99.90;;;;;;5117059;27;20152;-72
2023/03/10 04:57:35;;;;;;;5.13;1.10;;;10.60;99.90;;;;;;5135299;27;20242;-71
2023/03/10 05:00:06;;;;;;;9.27;1.50;;;10.70;99.90;;;;;;5127695;27;20170;-71
2023/03/10 05:02:33;;;;;;;10.07;1.70;;;10.70;99.90;;;;;;5114717;28;20154;-72
2023/03/10 05:05:00;;;;;;;7.03;1.77;;;10.80;99.90;;;;;;5114449;28;20205;-72
2023/03/10 05:07:26;;;;;;;8.30;1.23;;;10.80;99.90;;;;;;5114076;28;20572;-72
2023/03/10 05:09:51;;;;;;;6.20;1.10;;;10.80;99.90;;;;;;5118940;27;20222;-71
2023/03/10 05:12:17;;;;;;;6.87;1.47;;;10.60;99.90;;;;;;5135290;27;20189;-71
2023/03/10 05:14:43;;;;;;;11.57;1.90;;;10.60;99.90;;;;;;5116631;27;20245;-72
2023/03/10 05:17:10;;;;;;;5.23;1.33;;;10.60;99.90;;;;;;5116680;27;20261;-72
2023/03/10 05:19:36;;;;;;;7.97;1.50;;;10.50;99.90;;;;;;5100466;28;20170;-72
2023/03/10 05:22:03;;;;;;;8.17;1.60;;;10.50;99.90;;;;;;5114369;28;20164;-72
2023/03/10 05:24:29;;;;;;;7.90;1.30;;;10.60;99.90;;;;;;5095965;28;20215;-73
2023/03/10 05:26:56;;;;;;;9.10;1.53;;;10.60;99.90;;;;;;5114973;27;20154;-72
2023/03/10 05:29:23;;;;;;;8.23;1.77;;;10.50;99.90;;;;;;5134953;27;20536;-72
2023/03/10 05:31:48;;;;;;;8.50;1.60;;;10.60;99.90;;;;;;5116101;27;20525;-71
2023/03/10 05:34:14;;;;;;;9.50;1.57;;;10.50;99.90;;;;;;5134982;27;20165;-72
2023/03/10 05:36:41;;;;;;;8.30;1.60;;;10.50;99.90;;;;;;5116611;27;20169;-72
2023/03/10 05:39:08;;;;;;;8.70;1.83;;;10.50;99.90;;;;;;5115123;27;20201;-73
2023/03/10 05:41:35;;;;;;;7.83;1.97;;;10.50;99.90;;;;;;5096282;28;20154;-76
2023/03/10 05:44:03;;;;;;;12.23;1.93;;;10.50;99.90;;;;;;5096024;28;20569;-75
2023/03/10 05:46:29;;;;;;;12.23;1.87;;;10.50;99.90;;;;;;5095656;28;20555;-78
2023/03/10 05:48:55;;;;;;;9.77;2.07;;;10.50;99.90;;;;;;5096222;28;20170;-77
2023/03/10 05:51:21;;;;;;;9.33;1.70;;;10.40;99.90;;;;;;5114022;28;20602;-77
2023/03/10 05:53:47;;;;;;;7.40;2.07;;;10.60;99.90;;;;;;5113861;28;20634;-76
2023/03/10 05:56:18;;;;;;;14.27;1.90;;;10.60;99.90;;;;;;5113862;28;20172;-76
2023/03/10 05:58:45;;;;;;;10.00;1.80;;;10.60;99.90;;;;;;5110146;27;20169;-77
2023/03/10 06:01:11;;;;;;;6.50;1.40;;;10.70;99.90;;;;;;5134162;27;20164;-77
2023/03/10 06:03:38;;;;;;;10.27;1.60;;;10.50;99.90;;;;;;5134014;27;20227;-77
2023/03/10 06:06:05;;;;;;;9.63;1.70;;;10.60;99.90;;;;;;5133909;27;20200;-77
2023/03/10 06:08:31;;;;;;;11.43;2.30;;;10.50;99.90;;;;;;5103007;28;20162;-77
2023/03/10 06:10:57;;;;;;;8.27;2.00;;;10.50;99.90;;;;;;5095203;28;20162;-75
2023/03/10 06:13:24;;;;;;;9.70;2.33;;;10.60;99.90;;;;;;5095304;28;20166;-76
2023/03/10 06:15:51;;;;;;;12.13;1.80;;;10.40;99.90;;;;;;5115371;28;20177;-76
2023/03/10 06:18:17;;;;;;;11.20;2.27;;;10.30;99.90;;;;;;5133863;27;20230;-76
2023/03/10 06:20:44;;;;;;;9.07;1.67;;;10.40;99.90;;;;;;5133064;27;20161;-76
2023/03/10 06:23:09;;;;;;;6.37;2.10;;;10.40;99.90;;;;;;5133897;27;20546;-76
2023/03/10 06:25:36;;;;;;;9.73;2.33;;;10.40;99.90;;;;;;5133281;27;20272;-76
2023/03/10 06:28:03;;;;;;;7.67;2.13;;;10.40;99.90;;;;;;5134050;27;20233;-76
2023/03/10 06:30:31;;;;;;;8.50;1.60;;;10.50;99.90;;;;;;5129689;27;20158;-76
2023/03/10 06:33:00;;;;;;;7.77;2.07;;;10.50;99.90;;;;;;5112876;28;20174;-76
2023/03/10 06:35:28;;;;;;;10.43;1.80;;;10.40;99.90;;;;;;5113403;28;20165;-76
2023/03/10 06:37:55;;;;;;;11.83;1.80;;;10.40;99.90;;;;;;5113261;28;20520;-76
2023/03/10 06:40:21;;;;;;;6.93;1.67;;;10.40;99.90;;;;;;5100436;28;20533;-76
2023/03/10 06:42:50;;;;;;;8.00;2.10;;;10.40;99.90;;;;;;5119702;28;20164;-76
2023/03/10 06:45:19;;;;;;;11.63;1.90;;;10.50;99.90;;;;;;5097992;28;20276;-77
2023/03/10 06:48:04;;;;;;;10.60;2.50;;;10.70;99.90;;;;;;5115445;28;20157;-76
2023/03/10 06:50:34;;;;;;;11.93;1.87;;;10.70;99.90;;;;;;5115388;28;20165;-76
2023/03/10 06:53:02;;;;;;;11.33;2.30;;;10.70;99.90;;;;;;5133882;28;20169;-76
2023/03/10 06:55:41;;;;;;;9.70;1.77;;;10.70;99.90;;;;;;5133794;28;20173;-77
2023/03/10 06:58:20;;;;;;;7.77;1.90;;;10.60;99.90;;;;;;5134037;28;20521;-79
2023/03/10 07:00:58;;;;;;;8.87;1.90;;;10.80;99.90;;;;;;5133393;28;20177;-78
2023/03/10 07:03:29;;;;;;;9.07;2.03;;;10.80;99.90;;;;;;5133603;28;20150;-77
2023/03/10 07:05:58;;;;;;;14.03;2.20;;;11.00;99.90;;;;;;5133647;28;20200;-76
2023/03/10 07:08:29;;;;;;;10.63;2.17;;;11.00;99.90;;;;;;5115519;28;20225;-76
2023/03/10 07:10:56;;;;;;;14.47;2.27;;;11.10;99.90;;;;;;5133688;28;20219;-76
2023/03/10 07:13:32;;;;;;;11.17;2.13;;;11.20;99.90;;;;;;5133759;28;20500;-76
2023/03/10 07:15:57;;;;;;;11.10;2.43;;;11.20;99.90;;;;;;5115092;28;20158;-75
2023/03/10 07:18:28;;;;;;;8.47;2.50;;;11.10;99.90;;;;;;5133552;28;20184;-75
2023/03/10 07:20:54;;;;;;;13.30;2.87;;;11.00;99.90;;;;;;5114913;28;20244;-76
2023/03/10 07:23:24;;;;;;;12.83;2.33;;;11.10;99.90;;;;;;5133440;28;20149;-76
2023/03/10 07:25:56;;;;;;;10.97;2.23;;;11.10;99.90;;;;;;5130256;28;20182;-77
2023/03/10 07:28:24;;;;;;;12.00;2.20;;;11.10;99.90;;;;;;5133751;28;20145;-76
2023/03/10 07:30:51;;;;;;;13.10;2.30;;;11.10;99.90;;;;;;5115419;27;20629;-76
2023/03/10 07:33:19;;;;;;;16.20;2.30;;;11.00;99.90;;;;;;5137297;27;20165;-76
2023/03/10 07:35:48;;;;;;;11.23;1.90;;;10.90;99.90;;;;;;5137301;27;20240;-76
2023/03/10 07:38:14;;;;;;;10.17;2.30;;;10.80;99.90;;;;;;5137317;27;20157;-76
2023/03/10 07:40:41;;;;;;;10.53;2.93;;;10.60;99.90;;;;;;5137195;27;20256;-76
2023/03/10 07:43:09;;;;;;;9.07;3.37;;;10.60;99.90;;;;;;5119094;27;20609;-77
2023/03/10 07:45:36;;;;;;;8.33;2.47;;;10.30;99.90;;;;;;5118113;27;20208;-75
2023/03/10 07:48:02;;;;;;;16.30;3.03;;;10.20;99.90;;;;;;5135783;27;20165;-76
2023/03/10 07:50:28;;;;;;;11.03;2.40;;;10.40;99.90;;;;;;5117185;27;20633;-77
2023/03/10 07:52:54;;;;;;;12.13;2.77;;;10.50;99.90;;;;;;5117570;27;20161;-76
2023/03/10 07:55:20;;;;;;;10.37;3.10;;;10.40;99.90;;;;;;5136122;27;20517;-77
2023/03/10 07:57:46;;;;;;;12.73;3.10;;;10.20;99.90;;;;;;5136436;27;20260;-76
2023/03/10 08:00:12;;;;;;;10.40;2.70;;;10.10;99.90;;;;;;5118064;27;20623;-77
2023/03/10 08:02:38;;;;;;;7.53;2.20;;;10.10;99.90;;;;;;5136136;27;20260;-75
2023/03/10 08:05:04;;;;;;;7.60;2.40;;;10.10;99.90;;;;;;5136225;27;20177;-76
2023/03/10 08:07:30;;;;;;;11.57;2.33;;;10.10;99.90;;;;;;5136265;27;20152;-76
2023/03/10 08:09:57;;;;;;;7.57;1.77;;;10.10;99.90;;;;;;5118176;27;20161;-78
2023/03/10 08:12:23;;;;;;;9.17;2.43;;;10.10;99.90;;;;;;5136278;27;20150;-76
2023/03/10 08:14:50;;;;;;;5.30;1.67;;;10.10;99.90;;;;;;5117247;27;20168;-76
2023/03/10 08:17:16;;;;;;;7.83;1.73;;;10.10;99.90;;;;;;5117511;27;20174;-76
2023/03/10 08:19:41;;;;;;;6.43;1.80;;;10.00;99.90;;;;;;5135905;27;20150;-76
2023/03/10 08:22:09;;;;;;;9.60;1.60;;;10.10;99.90;;;;;;5136055;27;20525;-76
2023/03/10 08:24:36;;;;;;;6.50;1.40;;;10.20;99.90;;;;;;5135787;27;20257;-75
2023/03/10 08:27:03;;;;;;;9.90;1.93;;;10.20;99.90;;;;;;5135948;27;20160;-76
2023/03/10 08:29:29;;;;;;;5.73;1.33;;;10.30;99.90;;;;;;5135725;27;20631;-76
2023/03/10 08:31:54;;;;;;;5.53;1.30;;;10.20;99.90;;;;;;5117429;27;20184;-76
2023/03/10 08:34:20;;;;;;;3.90;1.03;;;10.30;99.90;;;;;;5117970;27;20628;-76
2023/03/10 08:36:46;;;;;;;6.73;1.10;;;10.10;99.90;;;;;;5136283;27;20214;-76
2023/03/10 08:39:12;;;;;;;6.27;1.10;;;10.00;99.90;;;;;;5136070;27;20164;-77
2023/03/10 08:41:47;;;;;;;4.47;1.07;;;10.00;99.90;;;;;;5135847;27;20181;-77
2023/03/10 08:44:16;;;;;;;7.07;1.30;;;10.00;99.90;;;;;;5135026;27;20169;-75
2023/03/10 08:46:43;;;;;;;3.93;1.30;;;10.00;99.90;;;;;;5136001;27;20197;-77
2023/03/10 08:49:09;;;;;;;5.60;1.00;;;9.90;99.90;;;;;;5117262;27;20168;-75
2023/03/10 08:51:35;;;;;;;4.70;1.00;;;10.00;99.90;;;;;;5135782;27;20176;-76
2023/03/10 08:54:02;;;;;;;3.17;1.07;;;9.90;99.90;;;;;;5135487;27;20165;-76
2023/03/10 08:56:29;;;;;;;3.87;1.00;;;10.00;99.90;;;;;;5135532;27;20193;-75
2023/03/10 08:58:57;;;;;;;4.90;1.13;;;10.10;99.90;;;;;;5134812;27;20684;-75
2023/03/10 09:01:25;;;;;;;4.90;1.10;;;10.10;99.90;;;;;;5135190;27;20543;-76
2023/03/10 09:03:51;;;;;;;4.03;1.30;;;10.20;99.90;;;;;;5135038;27;20180;-74
2023/03/10 09:06:17;;;;;;;3.77;1.20;;;10.30;99.90;;;;;;5116386;27;20200;-76
2023/03/10 09:08:43;;;;;;;4.33;1.43;;;10.30;99.90;;;;;;5116412;27;20165;-75
2023/03/10 09:11:13;;;;;;;3.00;1.20;;;10.30;99.90;;;;;;5116354;27;20165;-76
2023/03/10 09:13:39;;;;;;;3.57;1.00;;;10.30;99.90;;;;;;5134918;27;20637;-76
2023/03/10 09:16:04;;;;;;;4.43;1.20;;;10.10;99.90;;;;;;5135544;27;20310;-72
2023/03/10 09:18:30;;;;;;;2.30;0.97;;;10.10;99.90;;;;;;5116860;27;20207;-73
2023/03/10 09:20:56;;;;;;;5.20;1.50;;;10.20;99.90;;;;;;5134727;27;20232;-73
2023/03/10 09:23:21;;;;;;;4.37;1.17;;;10.30;99.90;;;;;;5134918;27;20164;-72
2023/03/10 09:25:47;;;;;;;2.53;1.33;;;10.30;99.90;;;;;;5134986;27;20706;-73
2023/03/10 09:28:13;;;;;;;2.93;1.27;;;10.20;99.90;;;;;;5134637;27;20160;-74
2023/03/10 09:30:40;;;;;;;4.40;1.23;;;10.10;99.90;;;;;;5116254;27;20229;-75
2023/03/10 09:33:12;;;;;;;3.27;1.43;;;10.10;99.90;;;;;;5134859;27;20605;-73
2023/03/10 09:35:38;;;;;;;2.97;1.33;;;10.30;99.90;;;;;;5134720;27;20161;-73
2023/03/10 09:38:04;;;;;;;3.93;1.50;;;10.30;99.90;;;;;;5134724;27;20618;-73
2023/03/10 09:40:31;;;;;;;5.30;1.73;;;10.20;99.90;;;;;;5134551;27;20233;-73
2023/03/10 09:43:01;;;;;;;2.67;1.53;;;10.20;99.90;;;;;;5134439;27;20165;-73
2023/03/10 09:45:51;;;;;;;6.00;2.00;;;10.20;99.90;;;;;;5134392;27;20188;-73
2023/03/10 09:48:24;;;;;;;5.13;1.70;;;10.30;99.90;;;;;;5134505;27;20158;-73
2023/03/10 09:50:55;;;;;;;11.07;2.17;;;10.30;99.90;;;;;;5133997;27;20173;-73
2023/03/10 09:53:47;;;;;;;5.40;1.70;;;10.40;99.90;;;;;;5134446;27;20149;-73
2023/03/10 09:56:30;;;;;;;4.43;1.80;;;10.30;99.90;;;;;;5132555;27;20219;-74
2023/03/10 09:59:06;;;;;;;4.17;1.63;;;10.20;99.90;;;;;;5115842;27;20169;-73
2023/03/10 10:01:33;;;;;;;6.80;2.20;;;10.20;99.90;;;;;;5115814;27;20180;-74
2023/03/10 10:04:14;;;;;;;5.60;2.07;;;10.20;99.90;;;;;;5115642;27;20161;-73
2023/03/10 10:06:45;;;;;;;3.00;2.00;;;10.30;99.90;;;;;;5133575;27;20204;-74
2023/03/10 10:09:42;;;;;;;7.03;2.60;;;10.50;99.90;;;;;;5134163;27;20169;-73
2023/03/10 10:12:12;;;;;;;4.07;2.03;;;10.60;99.90;;;;;;5044375;27;20663;-74
2023/03/10 10:14:38;;;;;;;5.07;2.50;;;10.60;99.90;;;;;;5115554;27;20625;-73
2023/03/10 10:17:14;;;;;;;4.17;2.23;;;10.70;99.90;;;;;;5115402;28;20234;-74
2023/03/10 10:19:39;;;;;;;5.07;2.37;;;10.70;99.90;;;;;;5133726;27;20475;-73
2023/03/10 10:22:23;;;;;;;4.43;2.37;;;10.80;99.90;;;;;;5133716;27;20520;-74
2023/03/10 10:24:54;;;;;;;4.60;1.90;;;10.70;99.90;;;;;;5114973;27;20193;-73
2023/03/10 10:27:20;;;;;;;2.60;2.00;;;10.50;99.90;;;;;;5115292;27;20173;-75
2023/03/10 10:29:46;;;;;;;2.53;1.90;;;10.50;99.90;;;;;;5133646;27;20626;-74
2023/03/10 10:32:14;;;;;;;3.40;1.93;;;10.70;99.90;;;;;;5115241;27;20149;-74
2023/03/10 10:34:44;;;;;;;2.93;2.20;;;10.80;99.90;;;;;;5133833;27;20145;-74
2023/03/10 10:37:28;;;;;;;3.77;2.70;;;11.00;99.90;;;;;;5133880;28;20183;-73
2023/03/10 10:39:55;;;;;;;5.00;2.40;;;11.10;99.90;;;;;;5133324;28;20158;-72
2023/03/10 10:42:25;;;;;;;4.17;2.00;;;11.20;99.90;;;;;;5133463;28;20188;-74
2023/03/10 10:45:03;;;;;;;2.90;1.80;;;11.20;99.90;;;;;;5133602;28;20189;-73
2023/03/10 10:47:46;;;;;;;1.97;1.70;;;11.10;99.90;;;;;;5133349;28;20249;-73
2023/03/10 10:50:21;;;;;;;2.30;1.83;;;11.00;99.90;;;;;;5133630;28;20244;-74
2023/03/10 10:52:51;;;;;;;2.50;1.80;;;11.00;99.90;;;;;;5115046;28;20168;-73
2023/03/10 10:55:26;;;;;;;2.20;1.60;;;11.00;99.90;;;;;;5133349;28;20164;-73
2023/03/10 10:58:00;;;;;;;4.17;1.80;;;11.00;99.90;;;;;;5114877;28;20165;-74
2023/03/10 11:00:31;;;;;;;3.17;2.33;;;11.00;99.90;;;;;;5133484;28;20166;-73
2023/03/10 11:02:57;;;;;;;2.63;2.03;;;11.10;99.90;;;;;;5114889;28;20582;-72
2023/03/10 11:05:25;;;;;;;3.47;2.37;;;11.00;99.90;;;;;;5133310;27;20564;-73
2023/03/10 11:07:51;;;;;;;3.07;2.03;;;11.00;99.90;;;;;;5136466;27;20157;-72
2023/03/10 11:10:22;;;;;;;4.90;2.60;;;11.00;99.90;;;;;;5137459;27;20165;-72
2023/03/10 11:13:08;;;;;;;4.03;2.17;;;11.20;99.90;;;;;;5137219;27;20520;-72
2023/03/10 11:16:05;;;;;;;2.00;1.60;;;11.20;99.90;;;;;;5137546;27;20157;-72
2023/03/10 11:18:43;;;;;;;2.57;2.00;;;11.30;99.90;;;;;;5137483;27;20157;-72
2023/03/10 11:21:24;;;;;;;3.80;2.10;;;11.30;99.90;;;;;;5137737;27;20161;-72
2023/03/10 11:23:58;;;;;;;3.80;2.10;;;11.50;99.90;;;;;;5136646;27;20172;-72
2023/03/10 11:26:55;;;;;;;3.23;1.87;;;11.50;99.90;;;;;;5137182;27;20221;-72
2023/03/10 11:30:20;;;;;;;3.17;1.93;;;11.80;99.90;;;;;;5137438;27;20169;-72
2023/03/10 11:33:07;;;;;;;4.43;2.47;;;11.80;99.90;;;;;;4998559;28;20182;-72
2023/03/10 11:35:44;;;;;;;2.27;1.70;;;11.80;99.90;;;;;;5112825;27;20185;-73
2023/03/10 11:38:22;;;;;;;2.80;1.60;;;11.60;99.90;;;;;;5136504;27;20536;-73
2023/03/10 11:40:53;;;;;;;3.50;1.37;;;11.00;99.90;;;;;;5136971;27;20613;-72
2023/03/10 11:43:30;;;;;;;1.97;1.00;;;10.80;99.90;;;;;;5118150;27;20165;-72
2023/03/10 11:45:59;;;;;;;1.27;0.80;;;10.60;99.90;;;;;;5136736;27;20555;-72
2023/03/10 11:49:02;;;;;;;1.77;0.70;;;10.10;99.90;;;;;;5136676;27;20621;-72
2023/03/10 11:51:34;;;;;;;1.50;1.10;;;9.90;99.90;;;;;;5136511;27;20153;-72
2023/03/10 11:54:08;;;;;;;2.90;1.20;;;9.80;99.90;;;;;;5136489;27;20154;-72
2023/03/10 11:56:36;;;;;;;3.30;1.40;;;9.70;99.90;;;;;;5117974;27;20217;-73
2023/03/10 11:59:29;;;;;;;3.73;1.30;;;9.60;99.90;;;;;;5136241;27;20189;-72
2023/03/10 12:02:08;;;;;;;2.87;1.17;;;9.50;99.90;;;;;;5114651;27;20280;-73
2023/03/10 12:04:50;;;;;;;2.43;1.70;;;9.40;99.90;;;;;;5136219;27;20161;-72
2023/03/10 12:07:18;;;;;;;3.40;1.60;;;9.50;99.90;;;;;;5117542;27;20175;-73
2023/03/10 12:09:53;;;;;;;3.47;1.70;;;9.50;99.90;;;;;;5136258;27;20169;-73
2023/03/10 12:12:27;;;;;;;1.83;1.47;;;9.50;99.90;;;;;;5118252;27;20706;-73
2023/03/10 12:14:55;;;;;;;3.07;1.67;;;9.50;99.90;;;;;;5136074;27;20153;-73
2023/03/10 12:17:21;;;;;;;2.80;1.33;;;9.30;99.90;;;;;;5135737;27;20596;-72
2023/03/10 12:20:10;;;;;;;3.33;1.30;;;9.30;99.90;;;;;;5117123;27;20179;-73
2023/03/10 12:22:45;;;;;;;3.27;1.43;;;9.30;99.90;;;;;;5117474;27;20169;-73
2023/03/10 12:25:28;;;;;;;2.87;1.43;;;9.20;99.90;;;;;;5136238;27;20188;-73
2023/03/10 12:28:16;;;;;;;3.17;1.60;;;9.10;99.90;;;;;;5136035;27;20168;-72
2023/03/10 12:30:47;;;;;;;3.77;1.53;;;9.10;99.90;;;;;;5136057;27;20201;-72
2023/03/10 12:33:36;;;;;;;3.47;1.53;;;9.20;99.90;;;;;;5117322;27;20256;-73
2023/03/10 12:36:11;;;;;;;2.70;1.53;;;9.10;99.90;;;;;;5117136;27;20173;-73
2023/03/10 12:38:49;;;;;;;4.13;1.57;;;9.20;99.90;;;;;;5135618;27;20153;-73
2023/03/10 12:41:26;;;;;;;4.27;1.33;;;9.20;99.90;;;;;;5135683;27;20172;-72
2023/03/10 12:43:58;;;;;;;2.17;1.33;;;9.20;99.90;;;;;;5135631;27;20161;-71
2023/03/10 12:47:00;;;;;;;2.13;1.43;;;9.00;99.90;;;;;;5117126;27;20303;-72
2023/03/10 12:49:32;;;;;;;4.57;1.20;;;9.00;99.90;;;;;;5116822;27;20174;-72
2023/03/10 12:52:09;;;;;;;3.80;1.40;;;9.10;99.90;;;;;;5117025;27;20175;-73
2023/03/10 12:55:13;;;;;;;3.40;1.83;;;8.90;99.90;;;;;;5116954;27;20210;-72
2023/03/10 12:57:56;;;;;;;1.90;1.70;;;8.90;99.90;;;;;;5092978;27;20195;-72
2023/03/10 13:00:24;;;;;;;2.90;2.20;;;8.90;99.90;;;;;;5135222;27;20158;-73